Terminal Aerodrome Forecast
Issued by NWS

Current Version | Previous Version | Text Only | Print | Product List | Glossary On
Versions: 1 2 3 4 5 6 7 8 9 10 11 12 13
610
FTUS46 KPDT 251426 AAB
TAFDLS
TAF AMD
KDLS 251426Z 2514/2612 28010KT P6SM FEW050 BKN200
     FM260000 31007KT P6SM -RA BKN050 OVC100
     FM260300 VRB06KT 6SM RA BKN020 OVC035
     FM260800 VRB06KT P6SM -RA BKN040 BKN070=

USA.gov is the U.S. government's official web portal to all federal, state and local government web resources and services.